Caruthersville, MO

09:19 PM CDT on Outubro 01, 2014 (GMT -0500)
Dyersburg Municipal | Change Station
CLOSE
Current Station
Airport
Location: Dyersburg,
Elevation: 338 ft
Nearby Weather Stations

Elev 338 ft 36.00 °N, 89.41 °W | Updated 4 minutes ago

Encapotado
Encapotado
75 °F
Feels Like 75 °F
N
5
Vento Variable Vento from SSL

Hoxe
High -- | Low -- °F
--% Chance of Precip.
Yesterday
High -- | Low -- °F
Precip. -- pol
6:53 AM 6:42 PM
Cuarto crescente, 53% visible
Presión 29.92 pol
Visibilidade 10.0 Millas
Nubes Moi Anubrado 9000 ft
Nivel de Rosada 55 °F
Humidade 50%
Rainfall 0.00 pol
Fondo da neve Not available.
UV 0 out of 12
Pollen 5.50 out of 12
Air Quality Not available.
Flu Activity Not available.
METAR KDYR 020215Z 16004KT 10SM BKN090 24/13 A2992 RMK AO1

More Conditions Fewer Conditions

Presión 29.92 pol
Visibilidade 10.0 Millas
Nubes Moi Anubrado 9000 ft
Nivel de Rosada 55 °F
Humidade 50%
Rainfall 0.00 pol
Fondo da neve Not available.
UV 0 out of 12
Pollen 5.50 out of 12
Air Quality Not available.
Flu Activity Not available.
METAR KDYR 020215Z 16004KT 10SM BKN090 24/13 A2992 RMK AO1

More Conditions Fewer Conditions

10-Day Weather Forecast

Almanac

Astronomía

Oct. 01, 2014 Rise Set
Tempo actual 6:53 AM CDT 6:42 PM CDT
Crepúsculo civil 6:28 AM CDT 7:07 PM CDT
Crepúsculo náutico 5:58 AM CDT 7:37 PM CDT
Crepúsculo astronómico 5:28 AM CDT 8:07 PM CDT
Lúa 1:47 PM CDT (10/1) A Lúa non se pon
Lonxitude da luz visíbel 12h 39m
Length of Day
11h 48m
Tomorrow will be 2m 15s shorter.
Cuarto crescente, 53% of the Moon is Illuminated
Hoxe
Cuarto crescente
Oct 8
Lúa chea
Oct 15
Cuarto menguante
Oct 23
New
Oct 30
Cuarto crescente

Today's Extremes

State Highs State Lows

Community

WunderPhotos

Upload Photos

1,758,137 photos uploaded!

WunderBlogs® & News

Nearby

Snow Depth

Station Depth Elevation
No new snow has been reported.

Earthquake Activity

Cidade Distance Mag. Time & Date
No recent earthquake activity has been reported nearby.
Minimum magnitude displayed is 2.5.

Coastal Water Temperatures

Lugar Temperatura
No Stations Reporting

Nearby Weather Stations